Time;durP1;ratioP1;P1;durP2;ratioP2;P2;SDS_P1;SDS_P2;PMS_P1;PMS_P2;Temp;Humidity;BMP_temperature;BMP_pressure;BME280_temperature;BME280_humidity;BME280_pressure;Samples;Min_cycle;Max_cycle;Signal;HPM_P1;HPM_P2
2021/05/18 00:00:31;;;;;;;30.15;15.20;;;9.30;91.80;;;;;;5055317;28;20104;-35
2021/05/18 00:02:57;;;;;;;28.70;15.43;;;9.20;91.60;;;;;;5055565;28;20028;-35
2021/05/18 00:05:24;;;;;;;35.97;17.90;;;9.20;92.00;;;;;;5055138;28;20026;-35
2021/05/18 00:08:02;;;;;;;41.25;17.27;;;9.30;91.90;;;;;;5055440;28;20029;-34
2021/05/18 00:13:17;;;;;;;27.08;14.85;;;9.50;91.40;;;;;;5055563;28;20199;-35
2021/05/18 00:15:44;;;;;;;31.42;14.18;;;9.40;91.20;;;;;;5055218;28;20029;-35
2021/05/18 00:18:10;;;;;;;29.42;13.65;;;9.60;91.00;;;;;;5053504;28;20484;-35
2021/05/18 00:20:36;;;;;;;29.20;13.00;;;9.60;90.40;;;;;;5054697;28;20049;-35
2021/05/18 00:23:04;;;;;;;25.75;13.68;;;9.60;90.20;;;;;;5054910;28;20102;-35
2021/05/18 00:25:30;;;;;;;28.75;14.10;;;9.60;90.10;;;;;;5055021;28;20021;-35
2021/05/18 00:27:56;;;;;;;34.53;13.13;;;9.80;90.00;;;;;;5055056;28;20330;-37
2021/05/18 00:30:23;;;;;;;26.00;14.43;;;9.80;89.80;;;;;;5055026;28;20029;-36
2021/05/18 00:32:48;;;;;;;26.67;13.95;;;9.90;89.20;;;;;;5054747;28;20024;-36
2021/05/18 00:35:14;;;;;;;33.88;16.77;;;9.80;89.00;;;;;;5054651;28;20112;-36
2021/05/18 00:37:40;;;;;;;28.70;13.52;;;9.90;89.00;;;;;;5054822;28;20029;-36
2021/05/18 00:40:10;;;;;;;25.38;14.90;;;9.90;89.00;;;;;;5054569;28;20017;-35
2021/05/18 00:42:49;;;;;;;31.55;15.23;;;9.90;89.50;;;;;;5054534;28;20029;-35
2021/05/18 00:45:16;;;;;;;31.25;14.27;;;10.00;89.30;;;;;;5054597;28;20076;-36
2021/05/18 00:47:43;;;;;;;35.10;15.75;;;10.10;88.20;;;;;;5054777;28;20063;-35
2021/05/18 00:50:10;;;;;;;29.48;14.73;;;9.80;89.50;;;;;;5054130;28;20070;-35
2021/05/18 00:52:37;;;;;;;24.17;14.23;;;9.80;89.90;;;;;;5053061;28;20043;-36
2021/05/18 00:55:16;;;;;;;32.33;15.10;;;9.80;90.70;;;;;;5054277;28;20025;-36
2021/05/18 01:00:26;;;;;;;34.90;15.55;;;9.80;90.60;;;;;;5053449;28;20058;-36
2021/05/18 01:02:52;;;;;;;31.33;15.48;;;9.90;89.90;;;;;;5053891;28;20025;-36
2021/05/18 01:05:20;;;;;;;39.47;16.67;;;9.80;90.40;;;;;;5054387;28;20024;-36
2021/05/18 01:07:47;;;;;;;36.00;17.33;;;9.90;89.80;;;;;;5054020;28;20380;-35
2021/05/18 01:10:15;;;;;;;32.33;17.70;;;9.80;89.80;;;;;;5054145;28;20025;-35
2021/05/18 01:12:41;;;;;;;31.50;16.48;;;9.80;89.90;;;;;;5053983;28;20036;-36
2021/05/18 01:15:09;;;;;;;35.83;17.58;;;9.80;90.10;;;;;;5053616;28;20112;-35
2021/05/18 01:17:34;;;;;;;35.25;16.80;;;9.80;89.90;;;;;;5054633;28;20039;-36
2021/05/18 01:20:11;;;;;;;35.25;17.77;;;9.80;90.10;;;;;;5053761;28;20100;-35
2021/05/18 01:22:37;;;;;;;39.00;17.48;;;10.00;89.30;;;;;;5053967;28;20376;-35
2021/05/18 01:25:05;;;;;;;31.83;14.77;;;9.90;89.50;;;;;;5053810;28;20025;-35
2021/05/18 01:27:31;;;;;;;30.58;16.40;;;9.70;89.90;;;;;;5053722;28;20037;-35
2021/05/18 01:29:56;;;;;;;35.10;16.35;;;9.70;90.60;;;;;;5053700;28;20546;-36
2021/05/18 01:32:25;;;;;;;32.97;15.18;;;9.80;90.00;;;;;;5054075;28;20039;-35
2021/05/18 01:34:51;;;;;;;38.67;15.68;;;9.90;89.80;;;;;;5053817;28;20096;-35
2021/05/18 01:37:16;;;;;;;32.40;15.07;;;9.90;89.80;;;;;;5053744;28;20117;-34
2021/05/18 01:44:58;;;;;;;23.42;15.85;;;9.70;90.50;;;;;;5053950;28;20035;-35
2021/05/18 01:47:24;;;;;;;24.13;14.48;;;9.60;91.00;;;;;;5053687;28;20123;-34
2021/05/18 01:49:50;;;;;;;29.58;16.33;;;9.50;91.30;;;;;;5051998;28;20081;-34
2021/05/18 01:52:15;;;;;;;26.63;16.00;;;9.60;91.00;;;;;;5053130;28;20127;-35
2021/05/18 01:54:41;;;;;;;36.22;17.15;;;9.70;91.20;;;;;;5053294;28;20114;-36
2021/05/18 01:57:20;;;;;;;27.38;15.38;;;9.80;90.80;;;;;;5053704;28;20017;-36
2021/05/18 01:59:48;;;;;;;35.95;17.30;;;9.80;90.60;;;;;;5053260;28;20074;-36
2021/05/18 02:02:14;;;;;;;34.60;15.30;;;9.80;90.60;;;;;;5053225;28;20143;-35
2021/05/18 02:04:44;;;;;;;35.05;17.25;;;9.90;90.80;;;;;;5053140;28;20025;-36
2021/05/18 02:07:18;;;;;;;33.28;15.40;;;9.80;90.80;;;;;;5053570;28;20032;-36
2021/05/18 02:09:44;;;;;;;36.10;15.32;;;9.80;90.60;;;;;;5052978;28;20029;-36
2021/05/18 02:12:11;;;;;;;28.10;15.73;;;9.70;91.10;;;;;;5051992;28;20029;-36
2021/05/18 02:14:38;;;;;;;31.95;16.52;;;9.80;91.60;;;;;;5053357;28;20059;-35
2021/05/18 02:25:23;;;;;;;29.75;16.27;;;10.00;90.40;;;;;;5053275;28;20051;-35
2021/05/18 02:27:49;;;;;;;37.13;16.10;;;10.10;90.40;;;;;;5052788;28;20033;-35
2021/05/18 02:30:16;;;;;;;34.75;16.73;;;10.10;90.20;;;;;;5052899;28;20021;-35
2021/05/18 02:32:42;;;;;;;28.55;14.68;;;10.00;90.20;;;;;;5052937;28;20037;-35
2021/05/18 02:35:11;;;;;;;33.88;15.70;;;9.80;91.00;;;;;;5053432;28;20535;-35
2021/05/18 02:37:38;;;;;;;29.20;16.35;;;9.90;91.60;;;;;;5052825;28;20033;-35
2021/05/18 02:40:09;;;;;;;34.92;18.10;;;10.00;90.80;;;;;;5053187;28;20025;-35
2021/05/18 02:42:35;;;;;;;37.13;16.73;;;10.10;90.20;;;;;;5053357;28;20108;-35
2021/05/18 02:50:30;;;;;;;34.25;16.45;;;10.00;90.70;;;;;;5052871;28;20128;-36
2021/05/18 02:52:56;;;;;;;26.77;16.33;;;9.80;91.10;;;;;;5053022;28;20469;-34
2021/05/18 02:55:35;;;;;;;34.58;16.45;;;10.00;90.70;;;;;;5052615;28;20028;-35
2021/05/18 02:58:01;;;;;;;31.73;14.88;;;9.90;90.10;;;;;;5052661;28;20099;-34
2021/05/18 03:00:26;;;;;;;31.90;16.40;;;9.80;90.80;;;;;;5052616;28;20048;-35
2021/05/18 03:02:52;;;;;;;30.35;15.57;;;9.80;90.90;;;;;;5052620;28;20047;-34
2021/05/18 03:05:23;;;;;;;25.98;15.35;;;9.80;91.10;;;;;;5052673;28;20519;-35
2021/05/18 03:07:51;;;;;;;29.48;15.70;;;9.90;90.50;;;;;;5053218;28;20496;-35
2021/05/18 03:10:17;;;;;;;28.92;15.95;;;10.00;90.50;;;;;;5053201;28;20051;-35
2021/05/18 03:12:42;;;;;;;32.92;16.05;;;9.80;91.00;;;;;;5052627;28;20033;-35
2021/05/18 03:15:09;;;;;;;24.85;16.73;;;9.80;91.50;;;;;;5052642;28;20078;-35
2021/05/18 03:17:36;;;;;;;33.38;16.98;;;9.70;92.00;;;;;;5052800;28;20041;-36
2021/05/18 03:20:04;;;;;;;37.63;19.90;;;9.80;92.10;;;;;;5052971;28;20036;-35
2021/05/18 03:22:29;;;;;;;41.50;19.48;;;9.90;91.00;;;;;;5053818;28;20021;-35
2021/05/18 03:24:55;;;;;;;35.90;22.50;;;10.00;90.80;;;;;;5057216;28;20039;-35
2021/05/18 03:27:21;;;;;;;36.38;18.15;;;9.90;90.90;;;;;;5055983;28;20477;-35
2021/05/18 03:29:49;;;;;;;41.72;21.13;;;9.70;91.90;;;;;;5056096;28;20047;-35
2021/05/18 03:34:59;;;;;;;35.55;20.10;;;9.80;92.70;;;;;;5056334;28;20035;-35
2021/05/18 03:39:58;;;;;;;37.85;19.70;;;9.80;92.70;;;;;;5056316;28;20021;-35
2021/05/18 03:42:39;;;;;;;;;;;9.80;92.80;;;;;;5056751;28;20143;-35
2021/05/18 03:45:11;;;;;;;51.35;22.05;;;9.80;92.70;;;;;;5056192;28;19932;-35
2021/05/18 03:58:56;;;;;;;48.08;23.17;;;10.10;92.10;;;;;;5055948;28;20036;-35
2021/05/18 04:04:22;;;;;;;40.17;22.98;;;10.00;92.20;;;;;;5056075;28;20094;-35
2021/05/18 04:12:44;;;;;;;42.70;24.45;;;9.90;92.90;;;;;;5055369;28;20128;-35
2021/05/18 04:50:01;;;;;;;33.53;18.77;;;10.00;91.80;;;;;;5054497;28;20040;-35
2021/05/18 05:16:33;;;;;;;28.85;18.10;;;10.20;92.20;;;;;;5053774;28;20536;-36
2021/05/18 05:18:58;;;;;;;29.80;18.73;;;10.20;92.20;;;;;;5053706;28;20106;-36
2021/05/18 05:21:29;;;;;;;24.80;15.57;;;10.30;91.80;;;;;;5052457;28;20024;-36
2021/05/18 05:23:55;;;;;;;31.77;17.33;;;10.20;91.80;;;;;;5053952;28;20476;-36
2021/05/18 05:26:21;;;;;;;24.13;16.27;;;10.30;92.30;;;;;;5052601;28;20108;-36
2021/05/18 05:28:46;;;;;;;26.27;16.38;;;10.20;91.80;;;;;;5052701;28;20522;-36
2021/05/18 05:31:12;;;;;;;30.67;17.08;;;10.10;92.30;;;;;;5053582;28;20028;-37
2021/05/18 05:33:38;;;;;;;26.15;16.83;;;10.00;92.60;;;;;;5052261;28;20033;-37
2021/05/18 05:36:04;;;;;;;25.40;16.73;;;10.10;92.60;;;;;;5052187;28;20243;-37
2021/05/18 05:38:31;;;;;;;27.25;17.80;;;10.10;92.70;;;;;;5053972;28;20032;-37
2021/05/18 05:40:57;;;;;;;29.08;18.08;;;10.10;93.00;;;;;;5053662;28;20021;-36
2021/05/18 05:43:22;;;;;;;25.20;17.52;;;10.20;93.10;;;;;;5053374;28;20029;-36
2021/05/18 05:45:51;;;;;;;30.92;20.88;;;10.10;93.30;;;;;;5052943;28;20487;-36
2021/05/18 05:48:20;;;;;;;30.25;19.98;;;10.20;93.40;;;;;;5053379;28;20427;-35
2021/05/18 05:50:47;;;;;;;32.00;18.80;;;10.20;93.40;;;;;;5053175;28;20561;-35
2021/05/18 05:53:12;;;;;;;41.08;22.42;;;10.20;93.30;;;;;;5053295;28;20043;-35
2021/05/18 05:55:38;;;;;;;34.35;21.90;;;10.30;93.20;;;;;;5053120;28;20021;-36
2021/05/18 05:58:04;;;;;;;34.92;23.30;;;10.30;93.20;;;;;;5052970;28;20028;-36
2021/05/18 06:00:29;;;;;;;32.45;21.63;;;10.40;92.90;;;;;;5053029;28;20048;-37
2021/05/18 06:02:55;;;;;;;40.20;22.10;;;10.50;92.20;;;;;;5052952;28;20103;-36
2021/05/18 06:05:21;;;;;;;32.78;22.60;;;10.70;91.60;;;;;;5053789;28;20108;-36
2021/05/18 06:07:47;;;;;;;41.55;23.90;;;10.70;91.90;;;;;;5053152;28;20100;-36
2021/05/18 06:10:18;;;;;;;33.72;21.48;;;10.80;91.20;;;;;;5052862;28;20028;-36
2021/05/18 06:13:40;;;;;;;36.92;22.40;;;10.80;91.10;;;;;;5053188;28;20389;-36
2021/05/18 06:42:24;;;;;;;31.98;20.30;;;10.90;91.10;;;;;;5052879;28;20074;-35
2021/05/18 06:47:35;;;;;;;27.25;18.02;;;11.10;89.80;;;;;;5052724;28;20055;-36
2021/05/18 06:50:28;;;;;;;30.10;18.88;;;11.00;89.40;;;;;;5052477;28;20036;-39
2021/05/18 06:52:53;;;;;;;32.15;19.70;;;10.90;89.70;;;;;;5052125;28;20041;-36
2021/05/18 06:55:23;;;;;;;36.30;20.60;;;11.20;89.80;;;;;;5052344;28;20171;-36
2021/05/18 06:57:51;;;;;;;32.90;19.92;;;11.40;88.70;;;;;;5055873;28;20385;-36
2021/05/18 07:00:20;;;;;;;33.30;19.33;;;11.70;87.80;;;;;;5055989;28;20029;-36
2021/05/18 07:02:48;;;;;;;27.10;17.67;;;11.70;87.30;;;;;;5056108;28;20017;-36
2021/05/18 07:07:59;;;;;;;30.60;18.27;;;11.70;86.60;;;;;;5056113;28;20025;-40
2021/05/18 07:10:25;;;;;;;23.40;15.60;;;11.50;87.20;;;;;;5039676;28;20037;-35
2021/05/18 07:12:50;;;;;;;20.75;14.75;;;11.50;87.00;;;;;;5054592;28;20032;-36
2021/05/18 07:15:17;;;;;;;20.67;13.75;;;11.80;86.00;;;;;;5056436;28;20021;-37
2021/05/18 07:17:42;;;;;;;19.00;12.88;;;11.80;86.50;;;;;;5055828;28;20025;-39
2021/05/18 07:20:08;;;;;;;15.98;13.57;;;11.80;86.40;;;;;;5055924;28;20029;-36
2021/05/18 07:22:34;;;;;;;19.65;12.57;;;11.80;86.20;;;;;;5056098;28;20086;-37
2021/05/18 07:25:00;;;;;;;17.05;11.88;;;11.70;87.00;;;;;;5055675;28;20048;-37
2021/05/18 07:27:25;;;;;;;12.02;10.02;;;11.70;87.50;;;;;;5055801;28;20147;-36
2021/05/18 07:29:51;;;;;;;12.15;9.25;;;11.90;86.00;;;;;;5055676;28;20025;-36
2021/05/18 07:32:17;;;;;;;11.98;8.40;;;12.40;84.30;;;;;;5055702;28;20061;-37
2021/05/18 07:34:42;;;;;;;10.05;8.13;;;12.80;83.10;;;;;;5055578;28;20067;-36
2021/05/18 07:37:08;;;;;;;10.30;8.07;;;13.00;83.20;;;;;;5055794;28;20029;-36
2021/05/18 07:39:34;;;;;;;7.80;6.78;;;13.70;82.50;;;;;;5055622;28;20025;-35
2021/05/18 07:41:59;;;;;;;9.25;7.35;;;14.10;78.80;;;;;;5055866;28;20017;-37
2021/05/18 07:44:25;;;;;;;11.80;8.90;;;14.80;74.90;;;;;;5055555;28;20033;-37
2021/05/18 07:46:51;;;;;;;11.57;9.07;;;14.30;77.10;;;;;;5054094;28;20531;-36
2021/05/18 07:49:33;;;;;;;12.10;9.05;;;14.10;77.10;;;;;;5055724;28;20120;-37
2021/05/18 08:05:28;;;;;;;24.02;16.10;;;12.50;83.70;;;;;;5055335;28;20082;-36
2021/05/18 08:07:54;;;;;;;24.42;14.85;;;12.30;84.90;;;;;;5054260;28;20040;-37
2021/05/18 08:12:49;;;;;;;27.50;17.20;;;12.30;84.40;;;;;;5054969;28;20036;-37
2021/05/18 08:18:04;;;;;;;25.20;16.63;;;12.50;83.70;;;;;;5053423;28;20063;-37
2021/05/18 10:36:02;;;;;;;6.72;4.53;;;12.30;76.70;;;;;;5056916;28;20025;-36
2021/05/18 10:38:39;;;;;;;9.38;5.38;;;12.10;77.00;;;;;;5057012;28;20037;-36
2021/05/18 10:41:27;;;;;;;5.13;4.63;;;12.00;77.70;;;;;;5056758;28;20029;-37
2021/05/18 10:43:59;;;;;;;7.57;4.78;;;12.20;77.60;;;;;;5058182;28;20036;-36
2021/05/18 10:46:28;;;;;;;4.97;4.22;;;12.00;78.40;;;;;;5057189;28;20033;-36
2021/05/18 10:49:00;;;;;;;4.68;4.13;;;12.00;79.00;;;;;;5055745;28;20029;-36
2021/05/18 10:51:39;;;;;;;8.23;4.70;;;11.90;78.30;;;;;;5055001;28;20055;-36
2021/05/18 10:54:23;;;;;;;6.22;4.20;;;11.80;78.90;;;;;;5055411;28;20497;-37
2021/05/18 10:59:38;;;;;;;7.32;5.35;;;11.80;80.60;;;;;;5056723;28;20025;-36
2021/05/18 11:02:16;;;;;;;8.50;4.93;;;11.60;81.70;;;;;;5056752;28;20115;-36
2021/05/18 11:04:45;;;;;;;6.40;5.03;;;11.50;81.70;;;;;;5055896;28;20021;-37
2021/05/18 11:07:15;;;;;;;7.10;6.00;;;11.50;82.00;;;;;;5056565;28;20095;-37
2021/05/18 11:09:41;;;;;;;8.07;5.55;;;11.40;82.60;;;;;;5056782;28;20100;-37
2021/05/18 11:12:10;;;;;;;6.95;5.55;;;11.90;81.40;;;;;;5056392;28;20087;-37
2021/05/18 11:14:39;;;;;;;5.10;4.20;;;11.90;81.30;;;;;;5056213;28;20057;-36
2021/05/18 11:17:16;;;;;;;8.50;4.47;;;12.00;80.40;;;;;;5056045;28;20032;-36
2021/05/18 11:20:12;;;;;;;6.47;5.03;;;12.30;77.90;;;;;;5056382;28;20017;-36
2021/05/18 11:25:33;;;;;;;10.63;5.90;;;11.90;79.70;;;;;;5056341;28;20128;-36
2021/05/18 11:28:33;;;;;;;8.98;6.05;;;11.70;81.20;;;;;;5056059;28;20096;-36
2021/05/18 11:31:01;;;;;;;6.15;5.30;;;12.50;76.70;;;;;;5047397;28;20485;-37
2021/05/18 11:33:33;;;;;;;7.53;5.18;;;12.60;76.70;;;;;;5055929;28;20063;-37
2021/05/18 11:36:04;;;;;;;11.95;5.68;;;12.20;78.10;;;;;;5055796;28;20507;-37
2021/05/18 11:38:30;;;;;;;6.85;4.93;;;12.10;79.20;;;;;;5056142;28;20029;-37
2021/05/18 11:40:56;;;;;;;9.45;6.30;;;12.30;80.10;;;;;;5055785;28;20037;-36
2021/05/18 11:43:39;;;;;;;9.50;6.80;;;12.80;78.50;;;;;;5055054;28;20104;-37
2021/05/18 11:46:12;;;;;;;9.07;6.07;;;13.20;76.80;;;;;;5055801;28;20028;-37
2021/05/18 11:48:40;;;;;;;9.27;6.28;;;13.50;74.40;;;;;;5055564;28;20032;-37
2021/05/18 11:51:13;;;;;;;9.38;6.97;;;13.60;75.30;;;;;;5055424;28;20045;-37
2021/05/18 11:53:44;;;;;;;7.53;6.30;;;13.60;75.00;;;;;;5055779;28;20025;-38
2021/05/18 11:56:28;;;;;;;11.25;5.95;;;13.90;76.40;;;;;;5055513;28;20032;-37
2021/05/18 11:59:15;;;;;;;7.72;5.97;;;14.20;76.40;;;;;;5055626;28;20037;-36
2021/05/18 12:01:44;;;;;;;7.53;5.97;;;14.50;73.80;;;;;;5055626;28;20096;-37
2021/05/18 12:04:21;;;;;;;10.15;6.15;;;14.90;71.80;;;;;;5055094;28;20025;-37
2021/05/18 12:07:01;;;;;;;11.52;7.18;;;14.80;70.70;;;;;;5055488;28;20094;-37
2021/05/18 12:09:28;;;;;;;9.00;6.72;;;15.80;67.90;;;;;;5055491;28;20025;-37
2021/05/18 12:11:55;;;;;;;10.80;7.20;;;15.20;68.80;;;;;;5055667;28;20071;-37
2021/05/18 12:14:23;;;;;;;13.05;6.78;;;16.80;65.30;;;;;;5055351;28;20028;-38
2021/05/18 12:16:49;;;;;;;10.25;6.93;;;17.30;60.50;;;;;;5054730;28;20053;-37
2021/05/18 12:19:17;;;;;;;10.43;6.85;;;17.60;62.90;;;;;;5054702;28;20029;-36
2021/05/18 12:21:46;;;;;;;10.90;7.68;;;17.80;59.70;;;;;;5054919;28;20017;-37
2021/05/18 12:24:18;;;;;;;7.88;6.47;;;17.80;61.40;;;;;;5053342;28;20473;-37
2021/05/18 12:26:48;;;;;;;8.95;6.10;;;18.50;59.80;;;;;;5054081;28;20398;-37
2021/05/18 12:29:37;;;;;;;10.30;6.93;;;19.00;54.70;;;;;;5053851;28;20028;-37
2021/05/18 12:32:21;;;;;;;8.50;6.63;;;18.30;54.20;;;;;;5054912;28;20112;-38
2021/05/18 12:34:51;;;;;;;9.15;7.75;;;19.30;50.90;;;;;;5054658;28;20032;-38
2021/05/18 12:37:18;;;;;;;;;;;19.20;52.00;;;;;;5055385;28;20055;-38
2021/05/18 12:39:45;;;;;;;8.70;7.18;;;19.30;51.00;;;;;;5053051;28;19944;-37
2021/05/18 12:42:23;;;;;;;8.60;6.63;;;19.70;49.30;;;;;;5053432;28;20027;-37
2021/05/18 12:45:01;;;;;;;8.73;7.18;;;19.50;47.90;;;;;;5054816;28;20056;-38
2021/05/18 12:47:35;;;;;;;7.82;6.85;;;19.30;49.20;;;;;;5054538;28;20017;-39
2021/05/18 12:50:03;;;;;;;8.35;6.40;;;18.90;50.70;;;;;;5055105;28;20104;-38
2021/05/18 12:52:38;;;;;;;10.27;6.85;;;18.40;52.80;;;;;;5054177;28;20102;-38
2021/05/18 12:55:12;;;;;;;10.20;6.57;;;17.20;54.10;;;;;;5052956;28;20054;-38
2021/05/18 12:57:53;;;;;;;8.98;6.97;;;16.30;58.00;;;;;;5053891;28;20029;-37
2021/05/18 13:00:29;;;;;;;9.25;7.60;;;15.60;61.60;;;;;;5053729;28;20028;-38
2021/05/18 13:03:06;;;;;;;11.52;7.57;;;15.70;62.50;;;;;;5053036;28;20060;-36
2021/05/18 13:05:32;;;;;;;17.13;9.95;;;14.00;69.70;;;;;;5054854;28;20101;-37
2021/05/18 13:08:19;;;;;;;9.38;7.93;;;13.00;76.20;;;;;;5053683;28;20546;-37
2021/05/18 13:13:56;;;;;;;9.63;6.85;;;13.10;77.40;;;;;;5053939;28;20029;-37
2021/05/18 13:16:25;;;;;;;9.95;7.88;;;13.10;78.80;;;;;;5052526;28;20032;-37
2021/05/18 13:19:05;;;;;;;10.65;7.90;;;13.10;77.70;;;;;;5053876;28;20484;-37
2021/05/18 13:21:47;;;;;;;15.80;9.30;;;12.90;78.50;;;;;;5052314;28;20032;-44
2021/05/18 13:26:25;;;;;;;12.55;8.60;;;12.70;80.50;;;;;;5053564;28;20025;-37
2021/05/18 13:26:59;;;;;;;15.68;10.57;;;12.70;81.70;;;;;;5061988;28;20029;-37
2021/05/18 13:29:25;;;;;;;16.17;10.27;;;12.70;83.70;;;;;;5053372;28;20074;-37
2021/05/18 13:31:53;;;;;;;16.65;8.55;;;12.80;82.80;;;;;;5051942;28;20017;-37
2021/05/18 13:34:19;;;;;;;9.05;7.05;;;12.60;82.30;;;;;;5052113;28;20021;-37
2021/05/18 13:36:46;;;;;;;12.82;8.90;;;12.40;82.50;;;;;;5053108;28;20017;-37
2021/05/18 13:39:18;;;;;;;10.10;7.63;;;12.30;83.70;;;;;;5051917;28;20029;-37
2021/05/18 13:41:44;;;;;;;12.57;7.88;;;12.40;82.50;;;;;;5053390;28;20032;-36
2021/05/18 13:44:10;;;;;;;11.98;7.60;;;12.40;82.70;;;;;;5053294;28;20499;-36
2021/05/18 13:46:36;;;;;;;9.80;7.55;;;12.40;82.70;;;;;;5053524;28;20100;-36
2021/05/18 13:49:03;;;;;;;8.73;6.90;;;12.60;82.60;;;;;;5053425;28;20025;-36
2021/05/18 13:51:30;;;;;;;8.30;6.13;;;12.40;82.70;;;;;;5052472;28;20053;-36
2021/05/18 13:53:56;;;;;;;8.52;6.65;;;12.70;81.60;;;;;;5052503;28;20385;-36
2021/05/18 13:56:23;;;;;;;9.38;6.55;;;12.70;82.20;;;;;;5052611;28;20021;-37
2021/05/18 13:58:50;;;;;;;10.10;6.63;;;13.00;80.20;;;;;;5052814;28;20025;-35
2021/05/18 14:01:16;;;;;;;10.25;7.13;;;12.80;80.60;;;;;;5051070;28;20032;-37
2021/05/18 14:03:41;;;;;;;13.23;7.53;;;12.90;81.40;;;;;;5051543;28;20017;-35
2021/05/18 14:06:07;;;;;;;12.07;7.10;;;12.80;81.80;;;;;;5052011;28;20018;-37
2021/05/18 14:08:34;;;;;;;9.02;6.50;;;12.60;82.00;;;;;;5052426;28;20056;-37
2021/05/18 14:11:17;;;;;;;13.50;8.32;;;12.40;83.90;;;;;;5050563;28;20385;-37
2021/05/18 14:13:49;;;;;;;13.32;9.20;;;12.80;84.70;;;;;;5052306;28;20089;-37
2021/05/18 14:16:18;;;;;;;10.77;7.82;;;12.80;84.50;;;;;;5052457;28;20021;-36
2021/05/18 14:18:52;;;;;;;12.93;8.38;;;13.30;83.30;;;;;;5052398;28;20120;-37
2021/05/18 14:21:23;;;;;;;11.45;7.57;;;13.50;80.80;;;;;;5052219;28;20139;-37
2021/05/18 14:26:18;;;;;;;8.98;6.68;;;13.90;80.20;;;;;;5052430;28;20024;-37
2021/05/18 14:28:44;;;;;;;14.43;7.63;;;13.50;79.40;;;;;;5051132;28;20033;-37
2021/05/18 14:31:12;;;;;;;10.43;7.70;;;13.80;79.60;;;;;;5052625;28;20102;-36
2021/05/18 14:33:39;;;;;;;13.10;6.88;;;14.40;78.30;;;;;;5052487;28;20022;-38
2021/05/18 14:36:07;;;;;;;9.70;8.00;;;14.90;75.20;;;;;;5050346;28;20109;-37
2021/05/18 14:38:33;;;;;;;11.02;7.75;;;14.80;74.10;;;;;;5051809;28;20017;-37
2021/05/18 14:57:06;;;;;;;11.55;7.15;;;14.90;71.40;;;;;;5052567;28;20032;-36
2021/05/18 14:59:33;;;;;;;11.75;7.90;;;14.30;74.10;;;;;;5051260;28;20392;-37
2021/05/18 15:01:58;;;;;;;8.30;6.75;;;14.30;73.50;;;;;;5052042;28;20060;-37
2021/05/18 15:04:24;;;;;;;7.03;5.60;;;13.80;75.10;;;;;;5052113;28;20045;-37
2021/05/18 15:06:50;;;;;;;9.68;4.00;;;13.80;72.60;;;;;;5052412;28;20028;-36
2021/05/18 15:09:16;;;;;;;6.45;3.08;;;13.30;69.70;;;;;;5052149;28;20028;-36
2021/05/18 15:11:42;;;;;;;9.25;3.90;;;12.50;73.10;;;;;;5052170;28;20132;-36
2021/05/18 15:14:08;;;;;;;8.95;3.63;;;12.10;76.00;;;;;;5052246;28;20055;-36
2021/05/18 15:16:34;;;;;;;5.88;3.33;;;11.50;79.50;;;;;;5052029;28;20037;-37
2021/05/18 15:19:09;;;;;;;7.10;2.97;;;11.30;79.00;;;;;;5054426;28;20025;-37
2021/05/18 15:21:35;;;;;;;4.32;3.10;;;11.20;79.50;;;;;;5055902;28;20029;-36
2021/05/18 15:24:02;;;;;;;5.28;2.97;;;11.10;79.70;;;;;;5055450;28;20021;-37
2021/05/18 15:26:27;;;;;;;8.18;4.32;;;11.00;79.10;;;;;;5055769;28;20033;-37
2021/05/18 15:28:53;;;;;;;6.53;3.33;;;11.00;80.20;;;;;;5055937;28;20111;-36
2021/05/18 15:31:19;;;;;;;3.38;2.80;;;11.00;80.50;;;;;;5055887;28;20100;-36
2021/05/18 15:33:44;;;;;;;4.78;2.97;;;11.10;80.50;;;;;;5055853;28;20112;-36
2021/05/18 15:36:12;;;;;;;3.03;2.47;;;11.30;81.60;;;;;;5055655;28;20021;-37
2021/05/18 15:38:38;;;;;;;4.70;2.75;;;11.80;81.30;;;;;;5055738;28;20021;-36
2021/05/18 15:41:08;;;;;;;5.00;2.72;;;12.40;80.00;;;;;;5056196;28;20021;-36
2021/05/18 15:43:37;;;;;;;3.22;2.38;;;13.20;76.50;;;;;;5055778;28;20119;-45
2021/05/18 15:46:03;;;;;;;6.40;3.50;;;13.30;74.20;;;;;;5055452;28;20060;-36
2021/05/18 15:48:30;;;;;;;6.93;3.22;;;13.20;75.50;;;;;;5055327;28;20029;-37
2021/05/18 15:50:56;;;;;;;4.80;2.83;;;13.10;75.20;;;;;;5055015;28;20091;-37
2021/05/18 15:53:22;;;;;;;3.90;2.30;;;13.30;73.00;;;;;;5055310;28;20100;-37
2021/05/18 15:55:48;;;;;;;3.10;1.85;;;13.40;73.80;;;;;;5055495;28;20036;-37
2021/05/18 15:58:13;;;;;;;5.72;1.92;;;13.80;75.00;;;;;;5054928;28;20028;-37
2021/05/18 16:00:39;;;;;;;2.30;1.50;;;14.50;73.60;;;;;;5055582;28;20025;-37
2021/05/18 16:03:06;;;;;;;2.67;1.45;;;14.80;68.80;;;;;;5055346;28;20021;-38
2021/05/18 16:05:32;;;;;;;2.38;1.67;;;14.40;67.40;;;;;;5055086;28;20076;-37
2021/05/18 16:10:42;;;;;;;2.38;1.75;;;14.60;68.80;;;;;;5055385;28;20115;-36
2021/05/18 16:13:08;;;;;;;2.38;1.70;;;14.50;67.60;;;;;;5054452;28;20104;-36
2021/05/18 16:15:33;;;;;;;4.95;1.60;;;15.70;66.90;;;;;;5055022;28;20104;-37
2021/05/18 16:17:59;;;;;;;3.17;1.70;;;17.10;60.50;;;;;;5053116;28;20037;-37
2021/05/18 16:20:25;;;;;;;3.95;2.03;;;17.00;62.00;;;;;;5054384;28;20039;-37
2021/05/18 16:22:50;;;;;;;3.95;2.45;;;17.50;62.40;;;;;;5054096;28;20079;-36
2021/05/18 16:25:17;;;;;;;5.28;1.98;;;17.60;60.60;;;;;;5052718;28;20113;-37
2021/05/18 16:27:43;;;;;;;4.22;2.28;;;17.50;57.90;;;;;;5053870;28;20029;-36
2021/05/18 16:30:09;;;;;;;2.78;1.90;;;17.40;59.30;;;;;;5054027;28;20037;-36
2021/05/18 16:32:35;;;;;;;3.20;1.90;;;17.70;57.60;;;;;;5052581;28;20067;-36
2021/05/18 16:35:00;;;;;;;2.30;1.60;;;18.00;58.40;;;;;;5054370;28;20029;-36
2021/05/18 16:37:26;;;;;;;7.88;2.33;;;18.10;54.30;;;;;;5054337;28;20084;-37
2021/05/18 16:39:52;;;;;;;4.18;2.60;;;17.30;57.80;;;;;;5054348;28;20032;-35
2021/05/18 16:42:17;;;;;;;8.80;4.28;;;18.40;54.80;;;;;;5054446;28;20032;-37
2021/05/18 16:44:46;;;;;;;3.58;1.83;;;17.90;56.90;;;;;;5055954;28;20078;-36
2021/05/18 16:47:12;;;;;;;4.75;3.20;;;17.30;58.70;;;;;;5053913;28;20029;-36
2021/05/18 16:49:38;;;;;;;5.30;3.65;;;17.30;57.80;;;;;;5053317;28;20036;-36
2021/05/18 16:52:04;;;;;;;2.83;2.17;;;17.40;56.40;;;;;;5053498;28;20551;-37
2021/05/18 16:54:30;;;;;;;4.22;2.95;;;17.20;57.60;;;;;;5052794;28;20120;-36
2021/05/18 16:56:55;;;;;;;2.85;2.40;;;17.50;58.30;;;;;;5054627;28;20036;-37
2021/05/18 16:59:21;;;;;;;6.72;2.88;;;16.30;62.90;;;;;;5053611;28;20021;-36
2021/05/18 17:01:48;;;;;;;8.65;2.75;;;16.30;64.80;;;;;;5054294;28;20112;-37
2021/05/18 17:04:15;;;;;;;4.38;3.33;;;16.00;64.00;;;;;;5053966;28;20025;-36
2021/05/18 17:06:42;;;;;;;7.57;3.90;;;15.80;65.10;;;;;;5053765;28;20060;-37
2021/05/18 17:09:09;;;;;;;5.63;3.75;;;15.10;67.80;;;;;;5054063;28;20508;-37
2021/05/18 17:11:39;;;;;;;5.15;4.15;;;14.80;70.60;;;;;;5053928;28;20055;-36
2021/05/18 17:14:05;;;;;;;4.43;4.00;;;14.50;70.10;;;;;;5054249;28;20107;-36
2021/05/18 17:16:32;;;;;;;5.72;4.38;;;14.30;70.20;;;;;;5054080;28;20151;-36
2021/05/18 17:18:57;;;;;;;7.93;4.57;;;14.00;72.20;;;;;;5053948;28;20059;-37
2021/05/18 17:21:24;;;;;;;7.15;3.83;;;14.00;71.30;;;;;;5052261;28;20119;-37
2021/05/18 17:23:50;;;;;;;5.50;4.63;;;14.00;71.20;;;;;;5054017;28;20371;-37
2021/05/18 17:26:15;;;;;;;5.93;4.35;;;14.00;71.70;;;;;;5053463;28;20103;-37
2021/05/18 17:28:41;;;;;;;7.45;4.80;;;13.80;73.80;;;;;;5052544;28;20027;-38
2021/05/18 17:31:08;;;;;;;6.20;3.85;;;13.90;73.20;;;;;;5053254;28;20103;-37
2021/05/18 17:33:34;;;;;;;7.32;4.20;;;13.90;72.10;;;;;;5053460;28;20025;-37
2021/05/18 17:36:00;;;;;;;4.13;3.72;;;14.00;70.20;;;;;;5052423;28;20020;-37
2021/05/18 17:38:26;;;;;;;6.82;4.40;;;14.10;69.80;;;;;;5052970;28;20028;-37
2021/05/18 17:40:52;;;;;;;4.88;3.50;;;14.10;71.20;;;;;;5052202;28;20040;-37
2021/05/18 17:43:18;;;;;;;5.07;3.58;;;13.90;72.40;;;;;;5051727;28;20024;-36
2021/05/18 17:45:45;;;;;;;7.38;3.58;;;14.00;71.30;;;;;;5053143;28;20081;-37
2021/05/18 17:48:11;;;;;;;5.50;3.42;;;14.00;71.20;;;;;;5052782;28;20558;-37
2021/05/18 17:50:36;;;;;;;15.02;4.25;;;14.10;70.60;;;;;;5052882;28;20041;-37
2021/05/18 17:53:02;;;;;;;5.35;4.40;;;14.00;71.70;;;;;;5053406;28;20032;-37
2021/05/18 17:55:28;;;;;;;7.65;3.25;;;14.00;73.10;;;;;;5051678;28;20129;-36
2021/05/18 17:57:54;;;;;;;7.38;3.90;;;13.80;72.80;;;;;;5051807;28;20219;-38
2021/05/18 18:00:21;;;;;;;4.80;3.72;;;13.90;72.00;;;;;;5052053;28;20028;-38
2021/05/18 18:02:47;;;;;;;7.63;4.03;;;14.10;71.60;;;;;;5053115;28;20087;-36
2021/05/18 18:05:13;;;;;;;8.32;4.32;;;13.80;72.60;;;;;;5052643;28;20013;-37
2021/05/18 18:07:39;;;;;;;7.47;5.35;;;13.70;73.90;;;;;;5052653;28;20496;-36
2021/05/18 18:10:07;;;;;;;9.00;4.65;;;13.80;73.70;;;;;;5053476;28;20147;-36
2021/05/18 18:12:33;;;;;;;6.22;4.00;;;13.80;72.50;;;;;;5052907;28;20025;-38